createdAt,value
2022-11-05T00:00:51.437Z,54.59
2022-11-05T00:03:18.558Z,53.98
2022-11-05T00:05:48.544Z,53.42
2022-11-05T00:08:15.457Z,55.00
2022-11-05T00:10:42.599Z,55.74
2022-11-05T00:13:11.328Z,56.68
2022-11-05T00:15:38.659Z,56.94
2022-11-05T00:18:05.611Z,57.45
2022-11-05T00:20:33.529Z,56.38
2022-11-05T00:23:05.277Z,56.04
2022-11-05T00:25:33.213Z,55.09
2022-11-05T00:28:04.058Z,54.87
2022-11-05T00:30:31.304Z,54.46
2022-11-05T00:33:02.009Z,54.29
2022-11-05T00:35:28.971Z,54.58
2022-11-05T00:37:55.730Z,54.81
2022-11-05T00:40:23.125Z,55.00
2022-11-05T00:42:50.036Z,54.90
2022-11-05T00:45:17.487Z,54.37
2022-11-05T00:47:44.484Z,57.55
2022-11-05T00:50:11.427Z,59.54
2022-11-05T00:52:39.173Z,58.48
2022-11-05T00:55:06.239Z,56.88
2022-11-05T00:57:33.066Z,56.43
2022-11-05T00:59:59.942Z,58.64
2022-11-05T01:02:27.630Z,56.82
2022-11-05T01:04:54.622Z,56.43
2022-11-05T01:07:21.964Z,56.33
2022-11-05T01:09:48.856Z,56.82
2022-11-05T01:12:15.678Z,59.09
2022-11-05T01:14:42.636Z,60.34
2022-11-05T01:17:09.525Z,61.15
2022-11-05T01:19:36.332Z,60.99
2022-11-05T01:22:03.293Z,60.93
2022-11-05T01:24:31.316Z,61.37
2022-11-05T01:26:58.076Z,60.39
2022-11-05T01:29:25.581Z,58.39
2022-11-05T01:31:52.454Z,58.69
2022-11-05T01:34:19.327Z,58.19
2022-11-05T01:36:46.158Z,57.37
2022-11-05T01:39:13.809Z,57.98
2022-11-05T01:41:40.681Z,56.85
2022-11-05T01:44:46.882Z,57.85
2022-11-05T01:47:39.864Z,57.31
2022-11-05T01:50:42.527Z,57.38
2022-11-05T01:53:30.191Z,59.83
2022-11-05T01:56:13.888Z,60.12
2022-11-05T01:58:53.098Z,59.29
2022-11-05T02:01:20.383Z,58.41
2022-11-05T02:03:50.800Z,57.63
2022-11-05T02:06:18.828Z,60.93
2022-11-05T02:09:00.845Z,62.11
2022-11-05T02:11:28.897Z,61.68
2022-11-05T02:13:57.075Z,60.86
2022-11-05T02:16:53.445Z,60.81
2022-11-05T02:19:59.254Z,59.88
2022-11-05T02:22:26.110Z,58.83
2022-11-05T02:25:01.925Z,58.49
2022-11-05T02:28:15.227Z,58.35
2022-11-05T02:30:48.018Z,57.99
2022-11-05T02:33:31.625Z,59.85
2022-11-05T02:36:32.623Z,60.05
2022-11-05T02:39:22.238Z,60.34
2022-11-05T02:42:14.736Z,60.27
2022-11-05T02:44:59.815Z,61.15
2022-11-05T02:47:47.322Z,62.30
2022-11-05T02:50:44.750Z,63.34
2022-11-05T02:53:35.499Z,63.50
2022-11-05T02:56:27.085Z,63.05
2022-11-05T02:58:53.959Z,62.87
2022-11-05T03:01:20.826Z,61.93
2022-11-05T03:03:54.273Z,60.75
2022-11-05T03:06:42.939Z,59.98
2022-11-05T03:09:12.750Z,59.76
2022-11-05T03:12:14.423Z,59.85
2022-11-05T03:15:06.038Z,59.31
2022-11-05T03:17:38.833Z,59.25
2022-11-05T03:20:17.749Z,59.25
2022-11-05T03:22:54.606Z,58.80
2022-11-05T03:25:24.440Z,59.01
2022-11-05T03:27:58.447Z,59.89
2022-11-05T03:30:26.096Z,60.90
2022-11-05T03:33:00.861Z,61.54
2022-11-05T03:35:31.992Z,63.13
2022-11-05T03:38:05.376Z,62.80
2022-11-05T03:40:38.571Z,62.78
2022-11-05T03:43:08.288Z,61.78
2022-11-05T03:45:41.990Z,60.95
2022-11-05T03:48:12.374Z,60.88
2022-11-05T03:51:12.833Z,60.56
2022-11-05T03:53:55.865Z,60.45
2022-11-05T03:57:03.812Z,59.80
2022-11-05T03:59:32.876Z,60.95
2022-11-05T04:01:59.905Z,61.14
2022-11-05T04:04:26.974Z,61.70
2022-11-05T04:06:53.838Z,61.76
2022-11-05T04:09:20.965Z,62.63
2022-11-05T04:11:48.419Z,63.11
2022-11-05T04:14:15.290Z,62.20
2022-11-05T04:16:42.119Z,62.06
2022-11-05T04:19:08.976Z,61.75
2022-11-05T04:21:35.778Z,62.31
2022-11-05T04:24:03.281Z,62.42
2022-11-05T04:26:30.326Z,62.51
2022-11-05T04:28:58.157Z,61.79
2022-11-05T04:31:25.022Z,61.87
2022-11-05T04:33:51.932Z,61.45
2022-11-05T04:36:19.336Z,61.68
2022-11-05T04:38:46.148Z,60.87
2022-11-05T04:41:33.100Z,61.12
2022-11-05T04:44:00.026Z,61.03
2022-11-05T04:46:27.466Z,61.91
2022-11-05T04:48:55.660Z,61.92
2022-11-05T04:51:22.501Z,61.95
2022-11-05T04:53:50.733Z,61.79
2022-11-05T04:56:22.712Z,61.83
2022-11-05T04:58:49.883Z,61.96
2022-11-05T05:01:21.868Z,61.91
2022-11-05T05:03:53.716Z,61.02
2022-11-05T05:06:21.010Z,60.55
2022-11-05T05:08:56.289Z,60.55
2022-11-05T05:11:23.253Z,60.08
2022-11-05T05:13:50.426Z,60.48
2022-11-05T05:16:23.826Z,60.20
2022-11-05T05:18:51.349Z,59.76
2022-11-05T05:21:22.063Z,58.96
2022-11-05T05:23:49.116Z,58.67
2022-11-05T05:26:16.897Z,58.02
2022-11-05T05:28:43.727Z,58.59
2022-11-05T05:31:10.658Z,58.14
2022-11-05T05:33:37.596Z,57.94
2022-11-05T05:36:08.499Z,57.27
2022-11-05T05:38:38.321Z,56.73
2022-11-05T05:41:05.282Z,56.40
2022-11-05T05:43:33.678Z,55.69
2022-11-05T05:46:04.952Z,56.08
2022-11-05T05:58:20.700Z,55.50
2022-11-05T06:00:47.532Z,54.96
2022-11-05T06:03:14.776Z,54.84
2022-11-05T06:05:41.835Z,54.29
2022-11-05T06:08:08.699Z,54.87
2022-11-05T06:10:36.099Z,54.33
2022-11-05T06:13:03.369Z,54.05
2022-11-05T06:15:35.504Z,54.41
2022-11-05T06:18:02.824Z,53.67
2022-11-05T06:20:29.926Z,53.55
2022-11-05T06:22:57.649Z,53.42
2022-11-05T06:25:25.390Z,54.22
2022-11-05T06:27:53.476Z,54.25
2022-11-05T06:30:20.423Z,54.30
2022-11-05T06:32:47.542Z,53.60
2022-11-05T06:35:14.392Z,54.59
2022-11-05T06:37:41.250Z,54.51
2022-11-05T06:40:08.968Z,53.90
2022-11-05T06:42:35.968Z,53.46
2022-11-05T06:45:05.460Z,53.04
2022-11-05T06:47:32.182Z,52.29
2022-11-05T06:49:59.125Z,52.35
2022-11-05T06:52:25.917Z,51.89
2022-11-05T06:54:52.835Z,52.05
2022-11-05T06:57:20.694Z,51.83
2022-11-05T06:59:47.537Z,51.64
2022-11-05T07:02:14.429Z,51.75
2022-11-05T07:04:41.571Z,51.24
2022-11-05T07:07:08.371Z,50.75
2022-11-05T07:09:35.320Z,50.96
2022-11-05T07:12:02.153Z,49.97
2022-11-05T07:14:29.003Z,49.41
2022-11-05T07:16:57.603Z,49.36
2022-11-05T07:19:24.490Z,48.99
2022-11-05T07:21:51.351Z,49.45
2022-11-05T07:24:18.312Z,49.48
2022-11-05T07:26:45.189Z,49.33
2022-11-05T07:29:11.957Z,48.96
2022-11-05T07:31:38.744Z,49.59
2022-11-05T07:34:05.652Z,48.91
2022-11-05T07:36:32.500Z,48.82
2022-11-05T07:39:00.685Z,48.96
2022-11-05T07:41:27.705Z,47.57
2022-11-05T07:43:54.700Z,47.34
2022-11-05T07:46:21.548Z,47.17
2022-11-05T07:48:48.522Z,46.82
2022-11-05T07:51:15.277Z,47.51
2022-11-05T07:53:45.270Z,47.47
2022-11-05T07:56:12.931Z,46.20
2022-11-05T07:58:39.808Z,46.55
2022-11-05T08:01:06.826Z,46.44
2022-11-05T08:03:34.471Z,46.53
2022-11-05T08:06:01.534Z,46.44
2022-11-05T08:08:28.356Z,46.32
2022-11-05T08:11:03.326Z,46.84
2022-11-05T08:13:30.146Z,46.68
2022-11-05T08:15:57.596Z,46.68
2022-11-05T08:18:24.922Z,46.44
2022-11-05T08:20:51.700Z,45.92
2022-11-05T08:23:18.524Z,44.91
2022-11-05T08:25:45.361Z,44.32
2022-11-05T08:28:13.504Z,44.89
2022-11-05T08:30:40.966Z,43.87
2022-11-05T08:33:11.792Z,44.13
2022-11-05T08:35:39.990Z,43.83
2022-11-05T08:38:10.003Z,44.05
2022-11-05T08:40:37.747Z,43.21
2022-11-05T08:43:07.477Z,43.20
2022-11-05T08:45:36.501Z,43.25
2022-11-05T08:48:06.629Z,42.32
2022-11-05T08:50:34.584Z,41.78
2022-11-05T08:53:01.518Z,42.19
2022-11-05T08:55:28.675Z,42.23
2022-11-05T08:57:56.947Z,42.44
2022-11-05T09:00:24.294Z,40.52
2022-11-05T09:02:51.447Z,40.35
2022-11-05T09:05:18.641Z,40.79
2022-11-05T09:07:46.018Z,37.94
2022-11-05T09:10:13.678Z,38.54
2022-11-05T09:12:40.728Z,38.36
2022-11-05T09:15:10.870Z,38.71
2022-11-05T09:17:37.848Z,38.76
2022-11-05T09:20:05.704Z,38.41
2022-11-05T09:22:32.778Z,36.51
2022-11-05T09:25:00.097Z,35.84
2022-11-05T09:27:26.996Z,36.05
2022-11-05T09:29:55.219Z,35.66
2022-11-05T09:32:22.065Z,35.78
2022-11-05T09:34:49.388Z,35.73
2022-11-05T09:37:16.748Z,36.08
2022-11-05T09:39:43.648Z,35.74
2022-11-05T09:42:17.560Z,35.42
2022-11-05T09:44:53.016Z,35.28
2022-11-05T09:47:47.014Z,34.98
2022-11-05T09:50:19.135Z,35.37
2022-11-05T09:52:46.060Z,35.01
2022-11-05T09:55:26.646Z,34.83
2022-11-05T09:57:59.534Z,34.55
2022-11-05T10:00:26.566Z,34.38
2022-11-05T10:03:03.429Z,34.12
2022-11-05T10:05:32.804Z,34.09
2022-11-05T10:08:03.463Z,34.24
2022-11-05T10:10:44.776Z,34.12
2022-11-05T10:13:51.828Z,33.86
2022-11-05T10:16:57.984Z,34.08
2022-11-05T10:19:30.922Z,34.11
2022-11-05T10:22:19.228Z,33.52
2022-11-05T10:24:49.309Z,33.69
2022-11-05T10:27:31.276Z,33.14
2022-11-05T10:29:58.205Z,33.20
2022-11-05T10:32:37.896Z,32.09
2022-11-05T10:35:07.684Z,32.91
2022-11-05T10:37:40.665Z,31.98
2022-11-05T10:40:30.546Z,31.66
2022-11-05T10:43:14.930Z,31.34
2022-11-05T10:46:05.859Z,31.27
2022-11-05T10:48:58.938Z,31.87
2022-11-05T10:51:28.714Z,32.42
2022-11-05T10:54:02.286Z,32.26
2022-11-05T10:56:34.982Z,32.07
2022-11-05T10:59:02.277Z,32.13
2022-11-05T11:01:32.452Z,31.53
2022-11-05T11:04:23.241Z,31.81
2022-11-05T11:06:56.079Z,32.16
2022-11-05T11:09:29.311Z,31.73
2022-11-05T11:12:05.255Z,32.15
2022-11-05T11:14:32.621Z,32.30
2022-11-05T11:17:26.254Z,31.71
2022-11-05T11:20:11.886Z,31.88
2022-11-05T11:22:41.751Z,32.46
2022-11-05T11:25:51.088Z,32.16
2022-11-05T11:28:22.511Z,32.09
2022-11-05T11:31:26.619Z,31.85
2022-11-05T11:34:05.145Z,31.11
2022-11-05T11:36:43.690Z,29.88
2022-11-05T11:39:17.630Z,28.54
2022-11-05T11:41:47.261Z,29.53
2022-11-05T11:44:25.425Z,30.76
2022-11-05T11:46:55.667Z,31.43
2022-11-05T11:49:54.551Z,31.54
2022-11-05T11:52:37.520Z,30.72
2022-11-05T11:55:13.532Z,30.60
2022-11-05T11:57:53.448Z,28.94
2022-11-05T12:00:23.844Z,29.54
2022-11-05T12:03:05.625Z,29.28
2022-11-05T12:05:42.666Z,29.42
2022-11-05T12:08:45.239Z,29.33
2022-11-05T12:11:23.790Z,29.13
2022-11-05T12:14:01.784Z,29.23
2022-11-05T12:16:51.523Z,28.85
2022-11-05T12:19:24.452Z,28.53
2022-11-05T12:22:20.651Z,28.08
2022-11-05T12:25:13.008Z,26.92
2022-11-05T12:28:01.096Z,26.53
2022-11-05T12:30:37.009Z,25.38
2022-11-05T12:33:24.034Z,24.78
2022-11-05T12:35:59.734Z,25.51
2022-11-05T12:38:29.581Z,26.38
2022-11-05T12:41:18.013Z,27.05
2022-11-05T12:43:53.233Z,25.47
2022-11-05T12:46:31.977Z,25.95
2022-11-05T12:49:35.761Z,27.24
2022-11-05T12:52:11.382Z,26.10
2022-11-05T12:54:57.633Z,25.58
2022-11-05T12:57:27.660Z,25.26
2022-11-05T13:00:13.155Z,27.06
2022-11-05T13:03:18.364Z,27.65
2022-11-05T13:08:52.609Z,25.01
2022-11-05T13:11:41.852Z,25.75
2022-11-05T13:14:41.176Z,25.45
2022-11-05T13:17:24.805Z,26.30
2022-11-05T13:20:06.976Z,25.82
2022-11-05T13:22:38.487Z,27.02
2022-11-05T13:25:20.354Z,27.46
2022-11-05T13:28:10.153Z,27.59
2022-11-05T13:30:52.767Z,26.90
2022-11-05T13:33:35.706Z,25.53
2022-11-05T13:36:07.539Z,25.20
2022-11-05T13:38:34.812Z,24.92
2022-11-05T13:41:12.721Z,25.88
2022-11-05T13:43:58.887Z,25.79
2022-11-05T13:46:31.988Z,26.22
2022-11-05T13:49:23.491Z,26.80
2022-11-05T13:51:54.250Z,25.83
2022-11-05T13:54:42.390Z,26.20
2022-11-05T13:57:28.642Z,26.22
2022-11-05T14:00:20.237Z,25.97
2022-11-05T14:03:02.080Z,26.05
2022-11-05T14:05:41.549Z,26.09
2022-11-05T14:08:17.618Z,26.25
2022-11-05T14:10:58.591Z,26.86
2022-11-05T14:13:44.708Z,27.03
2022-11-05T14:16:48.668Z,27.11
2022-11-05T14:19:18.677Z,27.34
2022-11-05T14:21:51.074Z,27.58
2022-11-05T14:24:23.834Z,27.69
2022-11-05T14:27:03.097Z,27.79
2022-11-05T14:29:40.482Z,27.90
2022-11-05T14:32:41.625Z,28.10
2022-11-05T14:35:17.704Z,28.37
2022-11-05T14:37:58.998Z,28.47
2022-11-05T14:40:39.661Z,28.67
2022-11-05T14:43:23.494Z,29.07
2022-11-05T14:46:02.216Z,29.08
2022-11-05T14:48:48.903Z,29.27
2022-11-05T14:51:30.953Z,29.15
2022-11-05T14:54:23.565Z,29.48
2022-11-05T14:56:56.398Z,29.28
2022-11-05T14:59:29.652Z,29.50
2022-11-05T15:02:04.661Z,29.57
2022-11-05T15:04:36.445Z,29.72
2022-11-05T15:07:03.299Z,29.76
2022-11-05T15:09:37.099Z,29.37
2022-11-05T15:12:09.748Z,29.84
2022-11-05T15:14:58.433Z,30.03
2022-11-05T15:17:32.550Z,29.77
2022-11-05T15:20:24.098Z,30.43
2022-11-05T15:23:00.409Z,30.10
2022-11-05T15:25:51.975Z,30.49
2022-11-05T15:28:46.131Z,30.75
2022-11-05T15:31:12.975Z,31.00
2022-11-05T15:33:49.457Z,30.63
2022-11-05T15:36:32.346Z,31.14
2022-11-05T15:39:27.927Z,31.53
2022-11-05T15:41:47.934Z,31.58
2022-11-05T15:44:38.022Z,31.70
2022-11-05T15:47:29.273Z,31.76
2022-11-05T15:49:57.957Z,31.64
2022-11-05T15:52:46.529Z,32.18
2022-11-05T15:55:13.386Z,32.57
2022-11-05T15:57:52.608Z,32.44
2022-11-05T16:00:25.878Z,32.09
2022-11-05T16:03:02.908Z,32.79
2022-11-05T16:05:36.339Z,32.94
2022-11-05T16:08:03.695Z,33.22
2022-11-05T16:10:34.515Z,33.22
2022-11-05T16:13:23.704Z,33.54
2022-11-05T16:16:00.842Z,33.06
2022-11-05T16:18:36.023Z,32.89
2022-11-05T16:21:04.710Z,33.04
2022-11-05T16:23:48.379Z,33.00
2022-11-05T16:27:01.135Z,33.43
2022-11-05T16:29:31.471Z,32.86
2022-11-05T16:32:00.309Z,33.20
2022-11-05T16:34:43.315Z,33.42
2022-11-05T16:37:16.095Z,33.60
2022-11-05T16:39:42.972Z,33.58
2022-11-05T16:42:24.877Z,33.47
2022-11-05T16:44:57.619Z,33.25
2022-11-05T16:47:27.349Z,33.10
2022-11-05T16:49:54.242Z,32.91
2022-11-05T16:52:21.716Z,33.59
2022-11-05T16:54:48.660Z,33.61
2022-11-05T16:57:28.404Z,33.39
2022-11-05T16:59:56.368Z,33.46
2022-11-05T17:02:23.368Z,33.35
2022-11-05T17:04:50.386Z,33.74
2022-11-05T17:07:17.240Z,33.90
2022-11-05T17:09:44.075Z,33.73
2022-11-05T17:12:12.338Z,33.61
2022-11-05T17:14:39.511Z,33.59
2022-11-05T17:17:06.558Z,33.75
2022-11-05T17:19:34.103Z,33.63
2022-11-05T17:22:00.839Z,34.43
2022-11-05T17:24:27.701Z,35.16
2022-11-05T17:26:54.664Z,34.74
2022-11-05T17:29:21.384Z,34.20
2022-11-05T17:31:48.328Z,34.41
2022-11-05T17:34:15.182Z,34.16
2022-11-05T17:36:41.895Z,34.69
2022-11-05T17:39:08.857Z,34.88
2022-11-05T17:41:36.286Z,35.09
2022-11-05T17:44:03.173Z,34.91
2022-11-05T17:46:29.956Z,35.71
2022-11-05T17:48:56.953Z,35.53
2022-11-05T17:51:23.671Z,35.33
2022-11-05T17:53:50.955Z,35.46
2022-11-05T17:56:28.793Z,35.66
2022-11-05T17:59:00.620Z,35.83
2022-11-05T18:01:33.927Z,35.80
2022-11-05T18:04:07.233Z,35.60
2022-11-05T18:06:35.964Z,35.73
2022-11-05T18:09:03.301Z,35.45
2022-11-05T18:11:30.170Z,35.68
2022-11-05T18:13:57.033Z,35.83
2022-11-05T18:16:23.844Z,36.13
2022-11-05T18:18:50.709Z,36.07
2022-11-05T18:21:19.018Z,35.83
2022-11-05T18:23:46.002Z,35.87
2022-11-05T18:26:16.725Z,35.87
2022-11-05T18:28:44.662Z,35.72
2022-11-05T18:31:18.445Z,35.87
2022-11-05T18:33:45.552Z,35.85
2022-11-05T18:36:23.975Z,36.05
2022-11-05T18:38:50.945Z,35.88
2022-11-05T18:41:18.911Z,35.97
2022-11-05T18:43:45.860Z,35.99
2022-11-05T18:46:29.211Z,36.61
2022-11-05T18:49:00.586Z,36.31
2022-11-05T18:51:27.841Z,36.13
2022-11-05T18:53:55.419Z,35.94
2022-11-05T18:56:22.558Z,36.03
2022-11-05T18:58:50.576Z,36.01
2022-11-05T19:01:26.511Z,36.03
2022-11-05T19:03:55.882Z,36.24
2022-11-05T19:06:23.398Z,36.28
2022-11-05T19:08:50.267Z,36.68
2022-11-05T19:11:23.902Z,36.97
2022-11-05T19:13:51.456Z,36.70
2022-11-05T19:16:21.376Z,37.76
2022-11-05T19:18:48.966Z,38.38
2022-11-05T19:21:30.112Z,38.05
2022-11-05T19:23:58.694Z,37.46
2022-11-05T19:26:29.769Z,37.11
2022-11-05T19:29:01.371Z,36.91
2022-11-05T19:31:28.647Z,37.46
2022-11-05T19:33:55.902Z,36.59
2022-11-05T19:36:24.107Z,36.77
2022-11-05T19:38:55.908Z,36.65
2022-11-05T19:41:22.664Z,36.74
2022-11-05T19:43:49.789Z,36.60
2022-11-05T19:46:19.417Z,37.30
2022-11-05T19:48:46.348Z,37.83
2022-11-05T19:51:25.273Z,38.30
2022-11-05T19:53:53.321Z,38.57
2022-11-05T19:56:26.946Z,37.69
2022-11-05T19:58:54.629Z,37.81
2022-11-05T20:01:26.864Z,37.31
2022-11-05T20:03:55.732Z,37.31
2022-11-05T20:06:26.531Z,37.53
2022-11-05T20:09:19.870Z,37.35
2022-11-05T20:11:40.732Z,37.82
2022-11-05T20:14:09.417Z,37.76
2022-11-05T20:16:36.658Z,37.76
2022-11-05T20:19:05.632Z,37.58
2022-11-05T20:21:33.064Z,37.49
2022-11-05T20:24:01.342Z,37.74
2022-11-05T20:26:28.556Z,37.73
2022-11-05T20:28:55.746Z,38.48
2022-11-05T20:31:23.104Z,39.17
2022-11-05T20:33:52.835Z,39.88
2022-11-05T20:36:21.908Z,39.10
2022-11-05T20:38:51.171Z,38.76
2022-11-05T20:41:19.200Z,38.29
2022-11-05T20:43:48.266Z,38.07
2022-11-05T20:46:17.168Z,38.32
2022-11-05T20:48:45.098Z,38.53
2022-11-05T20:51:15.171Z,38.40
2022-11-05T20:53:42.954Z,38.22
2022-11-05T20:56:20.531Z,38.27
2022-11-05T20:58:47.358Z,38.37
2022-11-05T21:01:15.388Z,38.92
2022-11-05T21:03:46.988Z,38.66
2022-11-05T21:06:14.363Z,38.75
2022-11-05T21:08:41.512Z,37.74
2022-11-05T21:11:09.069Z,37.61
2022-11-05T21:13:38.928Z,38.01
2022-11-05T21:16:08.223Z,38.25
2022-11-05T21:18:37.112Z,38.51
2022-11-05T21:21:16.538Z,39.05
2022-11-05T21:23:43.819Z,38.39
2022-11-05T21:26:14.415Z,38.76
2022-11-05T21:28:41.756Z,38.68
2022-11-05T21:31:09.624Z,38.62
2022-11-05T21:33:36.683Z,38.38
2022-11-05T21:36:11.390Z,39.29
2022-11-05T21:38:39.355Z,39.13
2022-11-05T21:41:10.043Z,39.64
2022-11-05T21:43:39.432Z,39.46
2022-11-05T21:46:06.876Z,40.11
2022-11-05T21:48:34.516Z,40.68
2022-11-05T21:51:01.686Z,40.68
2022-11-05T21:53:28.709Z,40.02
2022-11-05T21:55:56.947Z,39.78
2022-11-05T21:58:24.032Z,39.63
2022-11-05T22:00:50.867Z,40.36
2022-11-05T22:03:17.986Z,41.52
2022-11-05T22:05:45.399Z,41.82
2022-11-05T22:08:12.413Z,41.59
2022-11-05T22:10:39.260Z,41.36
2022-11-05T22:13:08.322Z,41.41
2022-11-05T22:15:35.104Z,42.48
2022-11-05T22:18:01.921Z,42.22
2022-11-05T22:20:29.239Z,42.20
2022-11-05T22:22:56.032Z,41.10
2022-11-05T22:25:22.810Z,41.04
2022-11-05T22:27:49.631Z,40.21
2022-11-05T22:30:16.934Z,41.53
2022-11-05T22:32:43.708Z,41.23
2022-11-05T22:35:11.059Z,40.34
2022-11-05T22:37:37.831Z,40.90
2022-11-05T22:40:05.157Z,40.64
2022-11-05T22:42:31.988Z,40.51
2022-11-05T22:44:58.769Z,40.02
2022-11-05T22:47:26.692Z,40.04
2022-11-05T22:49:53.694Z,39.99
2022-11-05T22:52:20.491Z,41.14
2022-11-05T22:54:47.218Z,41.50
2022-11-05T22:57:14.289Z,40.71
2022-11-05T22:59:41.259Z,41.17
2022-11-05T23:02:10.043Z,40.82
2022-11-05T23:04:37.968Z,40.62
2022-11-05T23:07:04.802Z,41.75
2022-11-05T23:09:34.411Z,42.79
2022-11-05T23:12:02.607Z,43.72
2022-11-05T23:14:29.655Z,44.30
2022-11-05T23:16:56.699Z,44.44
2022-11-05T23:19:23.897Z,44.03
2022-11-05T23:21:50.625Z,44.37
2022-11-05T23:24:17.481Z,43.69
2022-11-05T23:26:45.304Z,43.71
2022-11-05T23:29:12.038Z,42.81
2022-11-05T23:31:38.851Z,42.68
2022-11-05T23:34:05.866Z,42.02
2022-11-05T23:36:32.574Z,42.95
2022-11-05T23:38:59.395Z,43.06
2022-11-05T23:41:26.270Z,42.85
2022-11-05T23:43:53.019Z,41.49
2022-11-05T23:46:19.777Z,41.86
2022-11-05T23:48:48.283Z,43.61
2022-11-05T23:51:15.000Z,43.54
2022-11-05T23:53:41.904Z,42.97
2022-11-05T23:56:12.282Z,43.85
2022-11-05T23:58:39.949Z,43.52
